Estación de Socoroma INIA

Ultimos registro cada 15 minutos 51
Estación Fecha / Hora Temperatura Humedad Lluvia Velocidad Dirección Radiación Presion
51 Socoroma INIA 02-05-2026 12:30 19,3 11,8 0 3,1 295 895 702,4
50 Socoroma INIA 02-05-2026 12:15 19,6 11 0 3,2 295 892 702,4
49 Socoroma INIA 02-05-2026 12:00 20,3 9,1 0 2,3 307 885 702,6
48 Socoroma INIA 02-05-2026 11:45 21,6 8,6 0 1,8 340 873 702,7
47 Socoroma INIA 02-05-2026 11:30 20,6 9,7 0 2,6 336 854 702,8
46 Socoroma INIA 02-05-2026 11:15 20,8 9,9 0 2,6 319 832 703
45 Socoroma INIA 02-05-2026 11:00 21 8,6 0 2,6 321 807 702,9
44 Socoroma INIA 02-05-2026 10:45 20,9 8,3 0 2,6 296 775 703
43 Socoroma INIA 02-05-2026 10:30 22,2 7,2 0 1,3 320 742 703,1
42 Socoroma INIA 02-05-2026 10:15 21,9 6,7 0 0,2 13 703 703,2
41 Socoroma INIA 02-05-2026 10:00 21,2 5,7 0 0,7 351 660 703,3
40 Socoroma INIA 02-05-2026 09:45 20,9 6,2 0 0,7 22 616 703,3
39 Socoroma INIA 02-05-2026 09:30 19,5 6,1 0 0,2 324 570 703,3
38 Socoroma INIA 02-05-2026 09:15 18,7 8,5 0 0,5 318 515 703
37 Socoroma INIA 02-05-2026 09:00 18,2 7,8 0 0,5 55 461 703
36 Socoroma INIA 02-05-2026 08:45 17,2 7,9 0 0,1 65 408 703
35 Socoroma INIA 02-05-2026 08:30 16,2 8,3 0 0,4 89 346 702,8
34 Socoroma INIA 02-05-2026 08:15 14,4 9,1 0 1,6 107 293 702,6
33 Socoroma INIA 02-05-2026 08:00 12,2 10,6 0 2,5 136 82 702,6
32 Socoroma INIA 02-05-2026 07:45 11,4 11,3 0 3 132 20 702,5
31 Socoroma INIA 02-05-2026 07:30 11,4 10,8 0 3,3 134 15 702,3
30 Socoroma INIA 02-05-2026 07:15 11,7 10,7 0 2,7 147 12 702,3
29 Socoroma INIA 02-05-2026 07:00 11,4 10 0 2,5 160 6 702,2
28 Socoroma INIA 02-05-2026 06:45 11 10,4 0 2,5 143 1 702
27 Socoroma INIA 02-05-2026 06:30 10,9 11 0 3 150 0 701,8
26 Socoroma INIA 02-05-2026 06:15 11,2 11,1 0 2,8 138 0 701,8
25 Socoroma INIA 02-05-2026 06:00 11,4 11,2 0 2,6 137 0 701,7
24 Socoroma INIA 02-05-2026 05:45 11,4 11,5 0 2,6 128 0 701,6
23 Socoroma INIA 02-05-2026 05:30 11,2 11,2 0 2,8 136 0 701,5
22 Socoroma INIA 02-05-2026 05:15 11,3 12 0 3 139 0 701,6
21 Socoroma INIA 02-05-2026 05:00 11,2 11,9 0 2,9 134 0 701,5
20 Socoroma INIA 02-05-2026 04:45 11,1 12,1 0 3,1 138 0 701,6
19 Socoroma INIA 02-05-2026 04:30 11,3 12,5 0 3,2 143 0 701,6
18 Socoroma INIA 02-05-2026 04:15 11,5 12,7 0 2,4 141 0 701,6
17 Socoroma INIA 02-05-2026 04:00 11,6 13 0 2,2 132 0 701,6
16 Socoroma INIA 02-05-2026 03:45 11,9 12,8 0 2,3 136 0 701,6
15 Socoroma INIA 02-05-2026 03:30 11,8 13,6 0 2,4 135 0 701,7
14 Socoroma INIA 02-05-2026 03:15 11,7 14,3 0 2,9 135 0 701,8
13 Socoroma INIA 02-05-2026 03:00 11,9 13,3 0 2 155 0 701,8
12 Socoroma INIA 02-05-2026 02:45 12,1 14 0 0,3 126 0 701,9
11 Socoroma INIA 02-05-2026 02:30 11,6 13,1 0 2,1 142 0 702,1
10 Socoroma INIA 02-05-2026 02:15 11,7 13,6 0 2,5 145 0 702,2
9 Socoroma INIA 02-05-2026 02:00 11,4 13,2 0 2,8 135 0 702,2
8 Socoroma INIA 02-05-2026 01:45 11 14,6 0 3,2 138 0 702,2
7 Socoroma INIA 02-05-2026 01:30 11,7 13,8 0 2,2 147 0 702,2
6 Socoroma INIA 02-05-2026 01:15 11,5 14,4 0 2,2 138 0 702,2
5 Socoroma INIA 02-05-2026 01:00 11,5 15,6 0 2,7 139 0 702,3
4 Socoroma INIA 02-05-2026 00:45 11,4 15,6 0 3,2 140 0 702,5
3 Socoroma INIA 02-05-2026 00:30 11,9 16,6 0 2,3 149 0 702,4
2 Socoroma INIA 02-05-2026 00:15 11,7 17,7 0 2,6 141 0 702,6
1 Socoroma INIA 02-05-2026 00:00 11,6 18,8 0 2,8 133 0 702,7